createdAt,value
2018-10-12T00:00:47.993Z,6.90
2018-10-12T00:03:16.513Z,6.60
2018-10-12T00:05:45.010Z,6.63
2018-10-12T00:08:13.472Z,7.57
2018-10-12T00:10:41.997Z,6.77
2018-10-12T00:13:10.441Z,7.00
2018-10-12T00:15:38.929Z,6.93
2018-10-12T00:18:07.387Z,6.50
2018-10-12T00:20:35.941Z,6.23
2018-10-12T00:23:04.459Z,6.70
2018-10-12T00:25:32.956Z,6.40
2018-10-12T00:28:01.490Z,6.43
2018-10-12T00:30:29.964Z,5.90
2018-10-12T00:32:58.402Z,6.23
2018-10-12T00:35:26.887Z,6.37
2018-10-12T00:37:55.344Z,6.53
2018-10-12T00:40:23.801Z,6.43
2018-10-12T00:42:53.025Z,6.37
2018-10-12T00:45:21.696Z,5.93
2018-10-12T00:47:55.614Z,6.67
2018-10-12T00:50:24.108Z,6.10
2018-10-12T00:52:52.573Z,5.33
2018-10-12T00:55:21.084Z,6.33
2018-10-12T00:57:49.573Z,5.53
2018-10-12T01:00:18.110Z,5.43
2018-10-12T01:02:46.597Z,5.47
2018-10-12T01:05:15.171Z,5.03
2018-10-12T01:07:43.661Z,5.60
2018-10-12T01:10:12.138Z,5.47
2018-10-12T01:12:40.702Z,5.70
2018-10-12T01:15:09.316Z,4.63
2018-10-12T01:17:38.272Z,4.90
2018-10-12T01:20:07.201Z,4.57
2018-10-12T01:22:35.749Z,4.50
2018-10-12T01:25:05.171Z,4.23
2018-10-12T01:27:33.936Z,4.17
2018-10-12T01:30:03.022Z,4.00
2018-10-12T01:32:36.773Z,3.60
2018-10-12T01:35:05.353Z,4.17
2018-10-12T01:37:33.800Z,3.80
2018-10-12T01:40:02.303Z,4.07
2018-10-12T01:42:30.716Z,4.17
2018-10-12T01:44:59.298Z,4.00
2018-10-12T01:47:27.800Z,3.60
2018-10-12T01:49:56.278Z,3.60
2018-10-12T01:52:24.857Z,3.80
2018-10-12T01:54:53.368Z,3.20
2018-10-12T01:57:21.883Z,3.40
2018-10-12T01:59:50.369Z,3.53
2018-10-12T02:02:18.860Z,3.73
2018-10-12T02:04:47.754Z,4.00
2018-10-12T02:07:16.312Z,3.60
2018-10-12T02:09:45.052Z,3.63
2018-10-12T02:12:13.600Z,3.43
2018-10-12T02:14:42.111Z,3.87
2018-10-12T02:17:10.572Z,3.83
2018-10-12T02:19:39.061Z,3.57
2018-10-12T02:22:07.564Z,3.37
2018-10-12T02:24:36.740Z,3.00
2018-10-12T02:27:05.249Z,2.93
2018-10-12T02:29:33.734Z,3.33
2018-10-12T02:32:02.564Z,3.10
2018-10-12T02:34:31.246Z,3.00
2018-10-12T02:37:00.135Z,2.97
2018-10-12T02:39:28.993Z,3.47
2018-10-12T02:41:57.808Z,3.03
2018-10-12T02:44:26.778Z,3.20
2018-10-12T02:46:55.833Z,3.00
2018-10-12T02:49:24.554Z,3.30
2018-10-12T02:51:53.588Z,3.40
2018-10-12T02:54:22.762Z,3.20
2018-10-12T02:56:51.802Z,2.93
2018-10-12T02:59:20.581Z,2.97
2018-10-12T03:01:49.523Z,3.27
2018-10-12T03:04:18.689Z,3.40
2018-10-12T03:06:47.393Z,3.30
2018-10-12T03:09:16.321Z,3.93
2018-10-12T03:11:45.339Z,3.20
2018-10-12T03:14:14.291Z,3.20
2018-10-12T03:16:43.191Z,3.00
2018-10-12T03:19:12.147Z,3.23
2018-10-12T03:21:40.948Z,3.10
2018-10-12T03:24:09.862Z,3.13
2018-10-12T03:26:38.734Z,3.33
2018-10-12T03:29:07.880Z,3.40
2018-10-12T03:31:36.590Z,4.10
2018-10-12T03:34:05.329Z,3.90
2018-10-12T03:36:34.418Z,3.60
2018-10-12T03:39:03.437Z,3.37
2018-10-12T03:41:31.956Z,3.37
2018-10-12T03:44:00.455Z,3.80
2018-10-12T03:46:28.965Z,3.87
2018-10-12T03:48:57.596Z,3.80
2018-10-12T03:51:26.289Z,3.83
2018-10-12T03:53:54.763Z,4.20
2018-10-12T03:56:23.258Z,3.57
2018-10-12T03:58:51.715Z,3.87
2018-10-12T04:01:20.204Z,4.40
2018-10-12T04:03:48.672Z,4.37
2018-10-12T04:06:17.135Z,5.07
2018-10-12T04:08:45.612Z,4.33
2018-10-12T04:11:14.088Z,4.63
2018-10-12T04:13:42.540Z,4.50
2018-10-12T04:16:11.038Z,4.83
2018-10-12T04:18:39.508Z,4.93
2018-10-12T04:21:08.243Z,4.97
2018-10-12T04:23:36.721Z,4.90
2018-10-12T04:26:05.188Z,4.90
2018-10-12T04:28:33.721Z,4.70
2018-10-12T04:31:02.205Z,4.40
2018-10-12T04:33:30.642Z,4.60
2018-10-12T04:35:59.118Z,5.03
2018-10-12T04:38:32.088Z,5.50
2018-10-12T04:41:06.845Z,5.13
2018-10-12T04:43:35.363Z,4.70
2018-10-12T04:46:05.499Z,4.93
2018-10-12T04:48:36.143Z,4.37
2018-10-12T04:51:07.154Z,4.93
2018-10-12T04:53:35.718Z,4.93
2018-10-12T04:56:07.396Z,5.10
2018-10-12T04:58:35.886Z,5.07
2018-10-12T05:01:04.441Z,4.70
2018-10-12T05:03:32.937Z,4.43
2018-10-12T05:06:01.826Z,5.23
2018-10-12T05:08:30.369Z,4.47
2018-10-12T05:10:58.901Z,5.10
2018-10-12T05:13:27.551Z,4.17
2018-10-12T05:15:56.071Z,4.40
2018-10-12T05:18:25.269Z,5.00
2018-10-12T05:20:53.805Z,4.40
2018-10-12T05:23:22.233Z,3.90
2018-10-12T05:25:50.700Z,4.90
2018-10-12T05:28:19.188Z,4.70
2018-10-12T05:30:47.701Z,5.40
2018-10-12T05:33:16.231Z,5.70
2018-10-12T05:35:45.031Z,5.13
2018-10-12T05:38:13.701Z,5.30
2018-10-12T05:40:42.392Z,5.33
2018-10-12T05:43:13.974Z,4.40
2018-10-12T05:45:42.492Z,5.37
2018-10-12T05:48:22.189Z,4.90
2018-10-12T05:50:50.728Z,5.30
2018-10-12T05:53:19.275Z,4.43
2018-10-12T05:55:47.898Z,4.50
2018-10-12T05:58:17.010Z,4.73
2018-10-12T06:00:45.534Z,5.37
2018-10-12T06:03:14.086Z,4.87
2018-10-12T06:05:42.603Z,4.27
2018-10-12T06:08:11.179Z,4.93
2018-10-12T06:10:39.701Z,4.73
2018-10-12T06:13:08.205Z,5.03
2018-10-12T06:15:36.699Z,4.60
2018-10-12T06:18:07.066Z,5.13
2018-10-12T06:20:35.652Z,5.70
2018-10-12T06:23:04.916Z,4.50
2018-10-12T06:25:33.536Z,5.70
2018-10-12T06:28:02.064Z,4.73
2018-10-12T06:30:30.582Z,5.07
2018-10-12T06:32:59.195Z,4.37
2018-10-12T06:35:28.142Z,5.07
2018-10-12T06:37:56.949Z,4.20
2018-10-12T06:40:25.481Z,4.30
2018-10-12T06:42:53.979Z,4.13
2018-10-12T06:45:22.479Z,4.63
2018-10-12T06:47:50.961Z,4.20
2018-10-12T06:50:19.484Z,5.13
2018-10-12T06:52:47.994Z,4.10
2018-10-12T06:55:16.483Z,4.20
2018-10-12T06:57:44.936Z,4.77
2018-10-12T07:00:13.485Z,4.93
2018-10-12T07:02:42.191Z,5.47
2018-10-12T07:05:10.841Z,5.23
2018-10-12T07:07:39.383Z,5.00
2018-10-12T07:10:08.802Z,5.20
2018-10-12T07:12:37.324Z,5.77
2018-10-12T07:15:06.570Z,5.17
2018-10-12T07:17:35.148Z,5.93
2018-10-12T07:20:03.836Z,5.67
2018-10-12T07:22:32.332Z,5.20
2018-10-12T07:25:00.851Z,5.80
2018-10-12T07:27:29.435Z,5.90
2018-10-12T07:29:58.004Z,5.60
2018-10-12T07:32:27.862Z,5.13
2018-10-12T07:34:56.425Z,5.80
2018-10-12T07:37:24.957Z,5.43
2018-10-12T07:39:53.433Z,5.90
2018-10-12T07:42:22.031Z,5.80
2018-10-12T07:44:50.443Z,5.50
2018-10-12T07:47:18.906Z,5.40
2018-10-12T07:49:47.389Z,5.93
2018-10-12T07:52:15.834Z,5.40
2018-10-12T07:54:44.460Z,5.70
2018-10-12T07:57:14.076Z,6.47
2018-10-12T07:59:44.008Z,5.43
2018-10-12T08:02:13.357Z,5.33
2018-10-12T08:04:42.643Z,5.70
2018-10-12T08:07:12.348Z,5.10
2018-10-12T08:09:40.897Z,5.00
2018-10-12T08:12:09.394Z,5.97
2018-10-12T08:14:37.881Z,4.90
2018-10-12T08:17:06.648Z,5.97
2018-10-12T08:19:35.193Z,5.20
2018-10-12T08:22:03.779Z,5.03
2018-10-12T08:24:32.239Z,4.90
2018-10-12T08:27:00.742Z,4.97
2018-10-12T08:29:29.398Z,5.23
2018-10-12T08:31:57.935Z,4.47
2018-10-12T08:34:26.378Z,4.60
2018-10-12T08:36:54.908Z,4.70
2018-10-12T08:39:23.425Z,4.37
2018-10-12T08:41:51.988Z,4.27
2018-10-12T08:44:20.415Z,4.20
2018-10-12T08:46:48.898Z,3.80
2018-10-12T08:49:17.381Z,4.17
2018-10-12T08:51:45.850Z,3.90
2018-10-12T08:54:14.385Z,3.83
2018-10-12T08:56:42.818Z,3.83
2018-10-12T08:59:11.301Z,3.80
2018-10-12T09:01:39.816Z,3.53
2018-10-12T09:04:08.336Z,3.83
2018-10-12T09:06:36.824Z,3.33
2018-10-12T09:09:08.572Z,3.43
2018-10-12T09:11:37.340Z,3.87
2018-10-12T09:14:06.057Z,3.70
2018-10-12T09:16:34.527Z,4.07
2018-10-12T09:19:03.163Z,3.70
2018-10-12T09:21:31.938Z,3.70
2018-10-12T09:24:00.410Z,4.23
2018-10-12T09:26:29.001Z,3.90
2018-10-12T09:28:57.514Z,4.03
2018-10-12T09:31:26.023Z,4.23
2018-10-12T09:33:54.496Z,3.43
2018-10-12T09:36:23.019Z,4.17
2018-10-12T09:38:51.490Z,4.27
2018-10-12T09:41:20.081Z,4.70
2018-10-12T09:43:48.578Z,3.70
2018-10-12T09:46:17.081Z,4.07
2018-10-12T09:48:45.572Z,4.20
2018-10-12T09:51:14.054Z,4.43
2018-10-12T09:53:42.529Z,4.43
2018-10-12T09:56:11.078Z,3.93
2018-10-12T09:58:39.593Z,4.23
2018-10-12T10:01:13.428Z,4.30
2018-10-12T10:03:47.130Z,4.40
2018-10-12T10:06:15.595Z,4.37
2018-10-12T10:08:44.393Z,4.30
2018-10-12T10:11:12.689Z,3.87
2018-10-12T10:13:41.231Z,4.20
2018-10-12T10:16:09.708Z,4.07
2018-10-12T10:18:38.230Z,3.33
2018-10-12T10:21:06.772Z,3.73
2018-10-12T10:23:35.584Z,3.53
2018-10-12T10:26:04.054Z,3.03
2018-10-12T10:28:32.574Z,3.07
2018-10-12T10:31:01.051Z,3.17
2018-10-12T10:33:29.505Z,3.07
2018-10-12T10:35:58.016Z,3.27
2018-10-12T10:38:26.566Z,3.33
2018-10-12T10:40:55.000Z,3.07
2018-10-12T10:43:23.440Z,3.10
2018-10-12T10:45:51.942Z,3.00
2018-10-12T10:48:20.491Z,3.20
2018-10-12T10:50:49.015Z,3.00
2018-10-12T10:53:17.517Z,2.50
2018-10-12T10:55:46.052Z,2.77
2018-10-12T10:58:14.560Z,2.50
2018-10-12T11:00:43.141Z,2.90
2018-10-12T11:03:11.705Z,2.67
2018-10-12T11:05:40.162Z,2.20
2018-10-12T11:08:08.874Z,2.57
2018-10-12T11:10:37.327Z,2.77
2018-10-12T11:13:06.324Z,2.57
2018-10-12T11:15:34.861Z,2.60
2018-10-12T11:18:03.369Z,2.73
2018-10-12T11:20:31.859Z,2.80
2018-10-12T11:23:00.365Z,2.70
2018-10-12T11:25:28.845Z,3.00
2018-10-12T11:27:57.433Z,2.83
2018-10-12T11:30:25.962Z,3.23
2018-10-12T11:32:54.493Z,2.73
2018-10-12T11:35:22.920Z,3.03
2018-10-12T11:37:51.409Z,3.00
2018-10-12T11:40:19.915Z,2.60
2018-10-12T11:42:59.652Z,2.53
2018-10-12T11:46:57.380Z,2.70
2018-10-12T11:49:25.893Z,2.53
2018-10-12T11:51:54.333Z,2.47
2018-10-12T11:54:22.921Z,2.47
2018-10-12T11:56:53.342Z,2.47
2018-10-12T11:59:23.028Z,2.70
2018-10-12T12:01:51.495Z,2.90
2018-10-12T12:04:20.306Z,2.67
2018-10-12T12:06:49.019Z,2.93
2018-10-12T12:09:17.542Z,2.70
2018-10-12T12:11:46.022Z,2.30
2018-10-12T12:14:14.551Z,2.87
2018-10-12T12:16:43.933Z,2.27
2018-10-12T12:19:12.468Z,2.90
2018-10-12T12:21:40.944Z,2.50
2018-10-12T12:24:09.514Z,2.43
2018-10-12T12:26:37.989Z,3.10
2018-10-12T12:29:06.464Z,2.60
2018-10-12T12:31:35.010Z,2.63
2018-10-12T12:34:03.539Z,2.60
2018-10-12T12:36:32.027Z,2.43
2018-10-12T12:39:00.493Z,2.33
2018-10-12T12:41:29.029Z,2.13
2018-10-12T12:43:57.475Z,2.50
2018-10-12T12:46:25.994Z,1.90
2018-10-12T12:48:55.000Z,2.53
2018-10-12T12:51:23.063Z,2.23
2018-10-12T12:53:51.638Z,2.70
2018-10-12T12:56:20.048Z,2.50
2018-10-12T12:58:48.500Z,2.30
2018-10-12T13:01:16.975Z,2.30
2018-10-12T13:03:45.502Z,2.93
2018-10-12T13:06:14.008Z,2.23
2018-10-12T13:08:42.494Z,2.90
2018-10-12T13:11:11.081Z,2.20
2018-10-12T13:13:40.345Z,1.93
2018-10-12T13:16:08.820Z,2.20
2018-10-12T13:18:37.303Z,2.20
2018-10-12T13:21:05.776Z,2.00
2018-10-12T13:23:34.271Z,2.00
2018-10-12T13:26:02.921Z,2.00
2018-10-12T13:28:31.258Z,2.30
2018-10-12T13:30:59.762Z,2.37
2018-10-12T13:33:28.227Z,1.83
2018-10-12T13:35:56.715Z,1.90
2018-10-12T13:38:25.196Z,2.20
2018-10-12T13:40:53.681Z,2.40
2018-10-12T13:43:22.196Z,2.10
2018-10-12T13:45:50.678Z,2.27
2018-10-12T13:48:19.170Z,2.40
2018-10-12T13:50:47.716Z,2.23
2018-10-12T13:53:16.203Z,2.23
2018-10-12T13:55:44.693Z,3.00
2018-10-12T13:58:13.208Z,2.50
2018-10-12T14:00:41.687Z,2.83
2018-10-12T14:03:10.203Z,2.30
2018-10-12T14:05:38.724Z,2.30
2018-10-12T14:08:07.520Z,2.20
2018-10-12T14:10:35.961Z,2.10
2018-10-12T14:13:04.546Z,2.30
2018-10-12T14:15:33.057Z,2.30
2018-10-12T14:18:01.578Z,2.40
2018-10-12T14:20:30.105Z,2.57
2018-10-12T14:22:58.574Z,2.20
2018-10-12T14:25:27.052Z,2.03
2018-10-12T14:27:55.576Z,2.40
2018-10-12T14:30:24.170Z,2.27
2018-10-12T14:32:52.621Z,2.20
2018-10-12T14:35:21.107Z,2.30
2018-10-12T14:37:49.591Z,2.17
2018-10-12T14:40:18.068Z,2.47
2018-10-12T14:42:46.684Z,2.00
2018-10-12T14:45:15.180Z,2.10
2018-10-12T14:47:43.634Z,2.03
2018-10-12T14:50:12.117Z,1.90
2018-10-12T14:52:40.605Z,2.53
2018-10-12T14:55:09.425Z,2.87
2018-10-12T14:57:37.901Z,3.10
2018-10-12T15:00:08.224Z,2.60
2018-10-12T15:02:36.771Z,3.03
2018-10-12T15:05:05.705Z,2.40
2018-10-12T15:07:34.247Z,2.40
2018-10-12T15:10:03.171Z,2.47
2018-10-12T15:12:31.674Z,2.77
2018-10-12T15:15:15.314Z,2.60
2018-10-12T15:17:44.996Z,2.30
2018-10-12T15:20:13.486Z,2.53
2018-10-12T15:22:42.006Z,2.60
2018-10-12T15:25:10.592Z,2.60
2018-10-12T15:27:39.520Z,2.50
2018-10-12T15:30:08.358Z,2.40
2018-10-12T15:32:36.911Z,2.77
2018-10-12T15:35:05.454Z,2.93
2018-10-12T15:37:33.934Z,2.73
2018-10-12T15:40:02.838Z,2.60
2018-10-12T15:42:31.347Z,3.30
2018-10-12T15:44:59.837Z,2.40
2018-10-12T15:47:28.262Z,2.90
2018-10-12T15:49:56.756Z,2.80
2018-10-12T15:52:25.238Z,3.23
2018-10-12T15:54:53.760Z,2.93
2018-10-12T15:57:27.202Z,2.67
2018-10-12T15:59:55.712Z,2.87
2018-10-12T16:02:24.405Z,3.10
2018-10-12T16:04:53.054Z,2.70
2018-10-12T16:07:21.575Z,2.87
2018-10-12T16:09:51.197Z,3.00
2018-10-12T16:12:20.490Z,2.40
2018-10-12T16:14:49.023Z,2.90
2018-10-12T16:17:17.742Z,2.97
2018-10-12T16:19:46.308Z,3.30
2018-10-12T16:22:14.750Z,3.43
2018-10-12T16:24:55.578Z,3.17
2018-10-12T16:27:24.043Z,3.10
2018-10-12T16:29:52.509Z,3.30
2018-10-12T16:32:21.021Z,3.47
2018-10-12T16:34:49.566Z,3.50
2018-10-12T16:37:18.072Z,3.40
2018-10-12T16:39:46.570Z,3.13
2018-10-12T16:42:15.246Z,3.10
2018-10-12T16:44:43.700Z,3.40
2018-10-12T16:47:12.215Z,3.60
2018-10-12T16:49:40.686Z,3.60
2018-10-12T16:52:09.145Z,4.00
2018-10-12T16:54:37.641Z,3.37
2018-10-12T16:57:06.269Z,3.47
2018-10-12T16:59:34.715Z,3.27
2018-10-12T17:02:03.226Z,3.10
2018-10-12T17:04:31.722Z,3.47
2018-10-12T17:07:00.200Z,3.70
2018-10-12T17:09:28.682Z,3.77
2018-10-12T17:11:57.143Z,3.60
2018-10-12T17:14:25.674Z,3.27
2018-10-12T17:16:54.213Z,3.53
2018-10-12T17:19:22.739Z,3.40
2018-10-12T17:21:51.211Z,3.30
2018-10-12T17:24:19.693Z,3.50
2018-10-12T17:26:48.148Z,3.63
2018-10-12T17:29:16.584Z,4.00
2018-10-12T17:31:45.022Z,3.50
2018-10-12T17:34:13.477Z,3.47
2018-10-12T17:36:41.977Z,3.80
2018-10-12T17:39:11.777Z,3.93
2018-10-12T17:41:40.261Z,3.80
2018-10-12T17:44:08.778Z,4.10
2018-10-12T17:46:37.238Z,3.90
2018-10-12T17:49:05.754Z,4.10
2018-10-12T17:51:34.268Z,4.00
2018-10-12T17:54:02.814Z,4.20
2018-10-12T17:56:31.313Z,4.27
2018-10-12T17:58:59.803Z,4.10
2018-10-12T18:01:28.289Z,3.90
2018-10-12T18:03:56.757Z,3.90
2018-10-12T18:06:25.204Z,4.27
2018-10-12T18:08:54.057Z,4.30
2018-10-12T18:11:22.685Z,3.90
2018-10-12T18:13:51.202Z,4.00
2018-10-12T18:16:19.675Z,4.13
2018-10-12T18:18:48.132Z,4.30
2018-10-12T18:21:16.612Z,3.73
2018-10-12T18:23:45.169Z,3.87
2018-10-12T18:26:13.664Z,4.67
2018-10-12T18:28:42.146Z,4.33
2018-10-12T18:31:10.661Z,4.50
2018-10-12T18:33:39.145Z,4.47
2018-10-12T18:36:07.711Z,4.33
2018-10-12T18:38:36.292Z,4.47
2018-10-12T18:41:04.766Z,4.43
2018-10-12T18:43:33.267Z,4.33
2018-10-12T18:46:01.725Z,3.70
2018-10-12T18:48:30.216Z,4.20
2018-10-12T18:50:58.873Z,4.47
2018-10-12T18:53:27.367Z,3.80
2018-10-12T18:55:55.866Z,4.10
2018-10-12T18:58:24.407Z,4.30
2018-10-12T19:00:52.914Z,4.23
2018-10-12T19:03:21.475Z,4.20
2018-10-12T19:05:49.962Z,4.13
2018-10-12T19:08:18.450Z,3.70
2018-10-12T19:10:46.908Z,4.67
2018-10-12T19:13:15.385Z,4.60
2018-10-12T19:15:43.849Z,4.33
2018-10-12T19:18:12.309Z,4.40
2018-10-12T19:20:40.829Z,4.40
2018-10-12T19:23:09.377Z,4.23
2018-10-12T19:25:37.832Z,4.30
2018-10-12T19:28:06.383Z,4.27
2018-10-12T19:30:34.959Z,4.80
2018-10-12T19:33:03.477Z,4.30
2018-10-12T19:42:19.556Z,4.53
2018-10-12T19:44:48.043Z,4.43
2018-10-12T19:47:16.494Z,4.53
2018-10-12T19:49:44.952Z,4.30
2018-10-12T19:52:13.426Z,4.57
2018-10-12T19:54:41.935Z,4.13
2018-10-12T19:57:10.455Z,4.57
2018-10-12T19:59:38.892Z,4.90
2018-10-12T20:02:07.389Z,3.93
2018-10-12T20:04:35.925Z,4.30
2018-10-12T20:07:04.444Z,4.20
2018-10-12T20:09:32.904Z,4.23
2018-10-12T20:12:01.372Z,4.80
2018-10-12T20:14:29.897Z,3.77
2018-10-12T20:16:58.385Z,4.30
2018-10-12T20:19:26.870Z,3.77
2018-10-12T20:21:55.349Z,4.83
2018-10-12T20:24:23.826Z,4.07
2018-10-12T20:26:52.311Z,3.90
2018-10-12T20:29:20.742Z,4.27
2018-10-12T20:31:49.189Z,4.33
2018-10-12T20:34:17.628Z,4.23
2018-10-12T20:36:46.098Z,3.63
2018-10-12T20:39:14.751Z,4.10
2018-10-12T20:41:43.185Z,4.13
2018-10-12T20:44:11.725Z,4.43
2018-10-12T20:46:40.224Z,4.17
2018-10-12T20:49:08.909Z,4.30
2018-10-12T20:51:38.292Z,4.77
2018-10-12T20:54:07.080Z,3.80
2018-10-12T20:56:35.552Z,4.50
2018-10-12T20:59:04.013Z,4.57
2018-10-12T21:01:32.558Z,3.87
2018-10-12T21:04:01.034Z,5.00
2018-10-12T21:06:29.698Z,4.23
2018-10-12T21:08:58.181Z,4.27
2018-10-12T21:11:26.640Z,4.17
2018-10-12T21:13:55.140Z,4.00
2018-10-12T21:16:23.649Z,4.60
2018-10-12T21:18:52.142Z,4.40
2018-10-12T21:21:20.609Z,4.83
2018-10-12T21:23:49.143Z,4.13
2018-10-12T21:26:17.622Z,4.30
2018-10-12T21:28:46.089Z,4.77
2018-10-12T21:31:14.560Z,4.50
2018-10-12T21:33:43.514Z,4.13
2018-10-12T21:36:12.212Z,5.07
2018-10-12T21:38:41.663Z,4.60
2018-10-12T21:41:11.427Z,4.50
2018-10-12T21:43:39.887Z,4.33
2018-10-12T21:46:08.284Z,4.23
2018-10-12T21:48:36.760Z,4.20
2018-10-12T21:51:05.270Z,4.80
2018-10-12T21:53:33.767Z,4.87
2018-10-12T21:56:02.255Z,4.93
2018-10-12T21:58:30.671Z,5.10
2018-10-12T22:01:03.069Z,4.60
2018-10-12T22:03:32.696Z,4.37
2018-10-12T22:06:01.140Z,4.83
2018-10-12T22:08:35.029Z,4.40
2018-10-12T22:11:03.984Z,4.50
2018-10-12T22:13:32.462Z,4.27
2018-10-12T22:16:01.175Z,4.57
2018-10-12T22:18:29.611Z,4.90
2018-10-12T22:20:58.142Z,4.27
2018-10-12T22:23:26.615Z,5.10
2018-10-12T22:25:55.170Z,4.33
2018-10-12T22:28:23.522Z,4.10
2018-10-12T22:30:51.969Z,4.97
2018-10-12T22:33:20.422Z,5.27
2018-10-12T22:35:48.876Z,4.23
2018-10-12T22:38:17.373Z,4.80
2018-10-12T22:40:45.912Z,4.90
2018-10-12T22:43:14.367Z,4.40
2018-10-12T22:45:42.853Z,4.90
2018-10-12T22:48:11.346Z,5.03
2018-10-12T22:50:39.826Z,4.83
2018-10-12T22:53:08.290Z,4.50
2018-10-12T22:55:37.178Z,4.30
2018-10-12T22:58:05.701Z,4.43
2018-10-12T23:00:34.557Z,4.80
2018-10-12T23:03:03.072Z,4.30
2018-10-12T23:05:31.810Z,4.77
2018-10-12T23:08:00.300Z,4.80
2018-10-12T23:10:28.810Z,4.57
2018-10-12T23:12:57.302Z,5.00
2018-10-12T23:15:25.850Z,4.83
2018-10-12T23:17:54.386Z,4.63
2018-10-12T23:20:22.930Z,5.10
2018-10-12T23:22:51.475Z,4.47
2018-10-12T23:25:19.938Z,5.37
2018-10-12T23:27:48.442Z,4.77
2018-10-12T23:30:16.907Z,5.17
2018-10-12T23:32:45.463Z,4.73
2018-10-12T23:35:14.891Z,4.50
2018-10-12T23:37:43.396Z,5.13
2018-10-12T23:40:11.896Z,4.57
2018-10-12T23:42:40.357Z,5.10
2018-10-12T23:45:08.867Z,4.90
2018-10-12T23:47:37.420Z,5.00
2018-10-12T23:50:06.383Z,4.90
2018-10-12T23:52:34.846Z,5.30
2018-10-12T23:55:03.372Z,5.20
2018-10-12T23:57:31.858Z,5.20
